Stone Harbor, New Jersey
Current Conditions -  °F | °C
As of 4:35 AM on Thursday 23 Oct 2014 (Local Time) from KWWD Reporting Station
Overcast Overcast  
Wind Chill: 52°   Ceiling: 1700
Heat Index: 52°   Visibility: 6mi
Dew Point: 46°   Wind: 10mph
Humidity: 82%   Direction: 330°NNW
Pressure: 29.73"   Gusts: 21mph
Location:  39.05°N, 74.76°W
Report Text: KWWD 230835Z AUTO 33009G18KT 6SM SCT009 OVC017 11/08 A2973 RMK AO1
Loading
Personal Weather Stations






























Interactive Weather Map New forecast layout! Learn more

10-Day Weather Forecast

Advertisements
Track Severe Weather on mobile